createdAt,value
2023-04-27T00:00:15.160Z,99.90
2023-04-27T00:02:45.367Z,99.90
2023-04-27T00:05:16.379Z,99.90
2023-04-27T00:07:46.626Z,99.90
2023-04-27T00:10:16.595Z,99.90
2023-04-27T00:12:46.899Z,99.90
2023-04-27T00:15:17.151Z,99.90
2023-04-27T00:17:47.207Z,99.90
2023-04-27T00:20:18.401Z,99.80
2023-04-27T00:22:48.853Z,99.80
2023-04-27T00:25:18.871Z,99.20
2023-04-27T00:27:48.815Z,99.10
2023-04-27T00:30:20.451Z,99.20
2023-04-27T00:32:50.808Z,99.30
2023-04-27T00:35:21.567Z,99.10
2023-04-27T00:37:54.633Z,98.50
2023-04-27T00:40:24.588Z,98.30
2023-04-27T00:42:58.620Z,98.10
2023-04-27T00:45:29.340Z,98.00
2023-04-27T00:48:06.612Z,98.70
2023-04-27T00:50:37.221Z,97.80
2023-04-27T00:53:09.316Z,97.50
2023-04-27T00:55:39.934Z,97.20
2023-04-27T00:58:10.710Z,97.60
2023-04-27T01:00:42.478Z,97.00
2023-04-27T01:03:13.284Z,96.90
2023-04-27T01:05:47.224Z,96.80
2023-04-27T01:08:17.397Z,96.70
2023-04-27T01:10:46.696Z,96.60
2023-04-27T01:13:16.605Z,96.50
2023-04-27T01:15:47.834Z,96.20
2023-04-27T01:18:17.910Z,96.20
2023-04-27T01:20:48.617Z,96.10
2023-04-27T01:23:20.593Z,95.90
2023-04-27T01:25:50.514Z,95.60
2023-04-27T01:28:20.470Z,95.50
2023-04-27T01:30:51.613Z,94.70
2023-04-27T01:33:21.678Z,94.10
2023-04-27T01:35:54.036Z,94.00
2023-04-27T01:38:25.732Z,93.70
2023-04-27T01:40:57.108Z,93.40
2023-04-27T01:43:26.942Z,92.90
2023-04-27T01:45:57.096Z,93.00
2023-04-27T01:48:26.449Z,93.00
2023-04-27T01:50:56.369Z,92.30
2023-04-27T01:53:26.401Z,92.00
2023-04-27T01:55:56.379Z,91.80
2023-04-27T01:58:32.722Z,91.30
2023-04-27T02:01:03.700Z,91.20
2023-04-27T02:03:34.371Z,90.40
2023-04-27T02:06:04.941Z,90.50
2023-04-27T02:08:36.501Z,90.50
2023-04-27T02:11:08.309Z,90.70
2023-04-27T02:13:38.276Z,90.60
2023-04-27T02:16:07.771Z,89.60
2023-04-27T02:18:37.840Z,89.10
2023-04-27T02:21:13.517Z,87.50
2023-04-27T02:23:43.570Z,88.50
2023-04-27T02:26:23.869Z,87.50
2023-04-27T02:28:54.102Z,87.50
2023-04-27T02:31:25.782Z,88.70
2023-04-27T02:33:55.847Z,87.70
2023-04-27T02:36:25.179Z,87.30
2023-04-27T02:38:55.573Z,87.90
2023-04-27T02:41:25.738Z,88.00
2023-04-27T02:44:02.269Z,87.70
2023-04-27T02:46:32.601Z,86.50
2023-04-27T02:49:02.619Z,85.90
2023-04-27T02:51:32.019Z,84.70
2023-04-27T02:54:02.098Z,84.30
2023-04-27T02:56:32.581Z,84.60
2023-04-27T02:59:02.712Z,84.70
2023-04-27T03:01:32.034Z,84.80
2023-04-27T03:04:02.230Z,84.60
2023-04-27T03:06:32.291Z,83.70
2023-04-27T03:09:01.491Z,84.40
2023-04-27T03:11:31.483Z,83.00
2023-04-27T03:14:01.026Z,83.30
2023-04-27T03:16:31.383Z,83.00
2023-04-27T03:19:01.594Z,82.30
2023-04-27T03:21:31.630Z,81.20
2023-04-27T03:24:04.564Z,80.30
2023-04-27T03:26:34.458Z,79.50
2023-04-27T03:29:04.426Z,80.50
2023-04-27T03:31:34.466Z,80.10
2023-04-27T03:34:05.893Z,80.10
2023-04-27T03:36:35.782Z,78.50
2023-04-27T03:39:05.794Z,79.10
2023-04-27T03:41:35.864Z,79.20
2023-04-27T03:44:07.743Z,78.30
2023-04-27T03:46:41.493Z,77.60
2023-04-27T03:49:13.523Z,78.20
2023-04-27T03:51:44.302Z,77.10
2023-04-27T03:54:14.216Z,78.10
2023-04-27T03:56:44.081Z,76.30
2023-04-27T03:59:13.653Z,76.00
2023-04-27T04:01:43.471Z,75.90
2023-04-27T04:04:13.674Z,77.00
2023-04-27T04:06:45.529Z,77.00
2023-04-27T04:09:17.000Z,74.60
2023-04-27T04:11:47.008Z,74.80
2023-04-27T04:14:16.998Z,75.80
2023-04-27T04:16:46.968Z,74.90
2023-04-27T04:19:19.591Z,76.00
2023-04-27T04:21:51.663Z,73.20
2023-04-27T04:24:22.622Z,73.80
2023-04-27T04:26:53.064Z,73.10
2023-04-27T04:29:24.453Z,72.80
2023-04-27T04:31:59.861Z,73.20
2023-04-27T04:34:30.881Z,70.50
2023-04-27T04:37:01.146Z,72.90
2023-04-27T04:39:35.848Z,70.70
2023-04-27T04:42:06.309Z,73.10
2023-04-27T04:44:36.311Z,68.90
2023-04-27T04:47:06.475Z,69.30
2023-04-27T04:49:38.283Z,68.70
2023-04-27T04:52:08.394Z,67.50
2023-04-27T04:54:38.283Z,68.70
2023-04-27T04:57:10.458Z,68.70
2023-04-27T04:59:40.475Z,69.20
2023-04-27T05:02:10.786Z,69.50
2023-04-27T05:04:41.509Z,69.40
2023-04-27T05:07:19.164Z,68.80
2023-04-27T05:09:52.438Z,67.90
2023-04-27T05:12:23.625Z,69.10
2023-04-27T05:14:55.050Z,68.50
2023-04-27T05:17:25.389Z,69.30
2023-04-27T05:19:55.378Z,70.00
2023-04-27T05:22:30.187Z,69.60
2023-04-27T05:25:00.739Z,67.10
2023-04-27T05:27:30.794Z,68.20
2023-04-27T05:30:00.638Z,66.90
2023-04-27T05:32:30.629Z,67.30
2023-04-27T05:35:02.056Z,66.30
2023-04-27T05:37:32.078Z,63.80
2023-04-27T05:40:02.243Z,63.20
2023-04-27T05:42:32.592Z,62.50
2023-04-27T05:45:02.267Z,62.30
2023-04-27T05:47:32.779Z,61.70
2023-04-27T05:50:05.320Z,63.30
2023-04-27T05:52:37.557Z,62.10
2023-04-27T05:55:10.171Z,61.50
2023-04-27T05:57:41.487Z,59.20
2023-04-27T06:00:12.724Z,62.40
2023-04-27T06:02:43.081Z,59.70
2023-04-27T06:05:13.725Z,59.00
2023-04-27T06:07:45.560Z,59.90
2023-04-27T06:10:15.753Z,60.10
2023-04-27T06:12:47.787Z,59.90
2023-04-27T06:15:18.691Z,60.30
2023-04-27T06:17:51.806Z,59.50
2023-04-27T06:20:22.178Z,59.50
2023-04-27T06:22:53.040Z,59.70
2023-04-27T06:25:25.013Z,59.40
2023-04-27T06:28:01.192Z,59.10
2023-04-27T06:30:32.783Z,60.10
2023-04-27T06:33:03.323Z,60.00
2023-04-27T06:35:33.831Z,59.80
2023-04-27T06:38:07.949Z,59.50
2023-04-27T06:40:39.176Z,59.80
2023-04-27T06:43:09.567Z,60.10
2023-04-27T06:45:39.973Z,60.00
2023-04-27T06:48:10.497Z,60.70
2023-04-27T06:50:40.911Z,61.30
2023-04-27T06:53:11.824Z,61.50
2023-04-27T06:55:44.422Z,60.20
2023-04-27T06:58:16.071Z,60.90
2023-04-27T07:00:49.481Z,60.50
2023-04-27T07:03:21.301Z,60.20
2023-04-27T07:05:53.258Z,61.10
2023-04-27T07:08:23.638Z,61.70
2023-04-27T07:10:53.974Z,60.50
2023-04-27T07:13:25.712Z,60.60
2023-04-27T07:16:03.010Z,61.10
2023-04-27T07:18:36.215Z,62.20
2023-04-27T07:21:06.421Z,61.10
2023-04-27T07:23:37.057Z,62.40
2023-04-27T07:26:07.412Z,61.70
2023-04-27T07:28:37.890Z,61.10
2023-04-27T07:31:08.956Z,62.20
2023-04-27T07:33:39.281Z,61.50
2023-04-27T07:36:11.273Z,62.00
2023-04-27T07:38:41.759Z,60.90
2023-04-27T07:41:12.265Z,60.80
2023-04-27T07:43:43.916Z,61.00
2023-04-27T07:46:14.705Z,60.70
2023-04-27T07:48:45.621Z,61.10
2023-04-27T07:51:17.625Z,61.20
2023-04-27T07:53:48.037Z,61.10
2023-04-27T07:56:18.485Z,61.90
2023-04-27T07:58:48.871Z,61.50
2023-04-27T08:01:21.409Z,62.30
2023-04-27T08:03:52.509Z,61.50
2023-04-27T08:06:23.888Z,62.40
2023-04-27T08:08:54.784Z,62.70
2023-04-27T08:11:25.014Z,63.70
2023-04-27T08:13:55.289Z,63.20
2023-04-27T08:16:25.291Z,64.40
2023-04-27T08:18:55.522Z,62.70
2023-04-27T08:21:27.861Z,63.40
2023-04-27T08:24:00.375Z,64.00
2023-04-27T08:26:30.651Z,63.70
2023-04-27T08:29:19.288Z,63.20
2023-04-27T08:31:52.638Z,63.70
2023-04-27T08:34:23.661Z,63.50
2023-04-27T08:36:54.647Z,63.20
2023-04-27T08:39:25.861Z,63.10
2023-04-27T08:41:55.994Z,62.90
2023-04-27T08:44:26.451Z,62.60
2023-04-27T08:46:57.802Z,63.30
2023-04-27T08:49:28.364Z,63.50
2023-04-27T08:51:58.502Z,62.80
2023-04-27T08:54:28.824Z,63.00
2023-04-27T08:57:00.351Z,63.30
2023-04-27T08:59:30.628Z,63.10
2023-04-27T09:02:00.717Z,62.90
2023-04-27T09:04:48.527Z,63.70
2023-04-27T09:07:20.574Z,62.40
2023-04-27T09:09:51.631Z,61.40
2023-04-27T09:12:23.975Z,62.30
2023-04-27T09:15:01.748Z,62.70
2023-04-27T09:17:32.917Z,62.50
2023-04-27T09:20:15.098Z,62.80
2023-04-27T09:22:49.023Z,63.40
2023-04-27T09:25:33.036Z,63.90
2023-04-27T09:28:04.895Z,63.20
2023-04-27T09:30:35.429Z,63.40
2023-04-27T09:33:06.637Z,64.00
2023-04-27T09:35:37.063Z,64.10
2023-04-27T09:38:07.789Z,64.20
2023-04-27T09:40:38.555Z,63.80
2023-04-27T09:43:10.062Z,64.30
2023-04-27T09:45:41.443Z,64.40
2023-04-27T09:48:12.872Z,64.70
2023-04-27T09:50:46.187Z,64.00
2023-04-27T09:53:20.712Z,63.60
2023-04-27T09:56:02.579Z,63.90
2023-04-27T09:59:09.382Z,64.10
2023-04-27T10:01:50.002Z,64.10
2023-04-27T10:04:58.736Z,64.70
2023-04-27T10:07:30.610Z,65.40
2023-04-27T10:10:06.518Z,66.40
2023-04-27T10:12:38.561Z,67.50
2023-04-27T10:15:18.871Z,68.60
2023-04-27T10:17:57.167Z,69.40
2023-04-27T10:20:40.704Z,70.50
2023-04-27T10:23:11.429Z,70.80
2023-04-27T10:25:43.872Z,71.40
2023-04-27T10:28:20.238Z,71.70
2023-04-27T10:30:51.308Z,71.90
2023-04-27T10:33:24.823Z,72.30
2023-04-27T10:36:02.078Z,72.60
2023-04-27T10:38:34.740Z,72.50
2023-04-27T10:41:09.125Z,72.60
2023-04-27T10:43:39.475Z,73.00
2023-04-27T10:46:17.290Z,73.60
2023-04-27T10:48:47.806Z,73.80
2023-04-27T10:51:21.253Z,74.30
2023-04-27T10:53:55.662Z,74.10
2023-04-27T10:56:26.513Z,74.40
2023-04-27T10:58:58.788Z,74.00
2023-04-27T11:01:31.021Z,74.00
2023-04-27T11:04:04.993Z,73.80
2023-04-27T11:06:45.841Z,74.10
2023-04-27T11:09:30.571Z,74.00
2023-04-27T11:12:00.820Z,74.10
2023-04-27T11:14:31.799Z,74.10
2023-04-27T11:17:02.335Z,74.60
2023-04-27T11:19:33.892Z,74.80
2023-04-27T11:22:08.708Z,74.90
2023-04-27T11:24:39.139Z,74.60
2023-04-27T11:27:09.361Z,74.50
2023-04-27T11:29:44.174Z,73.80
2023-04-27T11:32:25.306Z,73.40
2023-04-27T11:34:58.414Z,73.30
2023-04-27T11:37:31.354Z,74.20
2023-04-27T11:40:04.448Z,74.20
2023-04-27T11:42:34.799Z,74.60
2023-04-27T11:45:08.336Z,75.00
2023-04-27T11:47:39.664Z,74.70
2023-04-27T11:50:11.476Z,74.40
2023-04-27T11:52:42.994Z,73.20
2023-04-27T11:55:17.560Z,73.10
2023-04-27T11:57:47.759Z,72.70
2023-04-27T12:00:18.979Z,73.00
